Time;durP1;ratioP1;P1;durP2;ratioP2;P2;SDS_P1;SDS_P2;PMS_P1;PMS_P2;Temp;Humidity;BMP_temperature;BMP_pressure;BME280_temperature;BME280_humidity;BME280_pressure;Samples;Min_cycle;Max_cycle;Signal;HPM_P1;HPM_P2
2023/11/18 00:00:23;;;;;;;54.70;41.30;;;2.40;99.90;;;;;;5003774;28;20593;-77
2023/11/18 00:02:50;;;;;;;48.83;38.00;;;2.50;99.90;;;;;;5002653;28;20706;-76
2023/11/18 00:05:16;;;;;;;47.33;38.78;;;2.40;99.90;;;;;;5005844;28;20977;-76
2023/11/18 00:07:42;;;;;;;56.25;41.67;;;2.40;99.90;;;;;;5001984;28;20049;-76
2023/11/18 00:10:08;;;;;;;55.33;41.55;;;2.30;99.90;;;;;;4989077;28;20041;-76
2023/11/18 00:12:34;;;;;;;68.93;46.63;;;2.30;99.90;;;;;;5007429;28;20137;-76
2023/11/18 00:15:04;;;;;;;58.40;44.42;;;2.40;99.90;;;;;;5005805;28;20128;-76
2023/11/18 00:17:33;;;;;;;52.22;41.65;;;2.40;99.90;;;;;;4988516;28;20492;-76
2023/11/18 00:19:59;;;;;;;100.07;50.17;;;2.50;99.90;;;;;;4986725;28;20038;-76
2023/11/18 00:22:24;;;;;;;116.55;51.47;;;2.40;99.90;;;;;;5007157;28;20488;-76
2023/11/18 00:24:52;;;;;;;67.95;46.17;;;2.50;99.90;;;;;;5006557;28;20120;-76
2023/11/18 00:27:18;;;;;;;96.78;52.17;;;2.50;99.90;;;;;;4989074;28;20041;-76
2023/11/18 00:29:43;;;;;;;119.60;51.03;;;2.50;99.90;;;;;;4991383;28;20033;-77
2023/11/18 00:32:09;;;;;;;98.55;48.17;;;2.50;99.90;;;;;;5000772;28;20041;-77
2023/11/18 00:34:35;;;;;;;84.15;47.55;;;2.50;99.90;;;;;;4996023;28;20128;-76
2023/11/18 00:37:01;;;;;;;68.53;44.05;;;2.60;99.90;;;;;;5004585;28;20407;-76
2023/11/18 00:39:27;;;;;;;270.88;63.55;;;2.50;99.90;;;;;;4995158;28;20519;-76
2023/11/18 00:41:53;;;;;;;96.07;45.03;;;2.50;99.90;;;;;;4988773;28;20364;-77
2023/11/18 00:44:26;;;;;;;72.57;43.47;;;2.50;99.90;;;;;;5020245;28;20059;-76
2023/11/18 00:46:52;;;;;;;53.33;39.50;;;2.40;99.90;;;;;;5000541;28;20037;-77
2023/11/18 00:49:18;;;;;;;72.13;41.72;;;2.50;99.90;;;;;;5015702;28;20107;-76
2023/11/18 00:51:43;;;;;;;79.00;41.78;;;2.40;99.90;;;;;;4988496;28;20041;-76
2023/11/18 00:54:09;;;;;;;94.75;44.17;;;2.40;99.90;;;;;;5005451;28;20078;-76
2023/11/18 00:56:35;;;;;;;105.32;49.10;;;2.40;99.90;;;;;;4986947;28;20077;-76
2023/11/18 00:59:01;;;;;;;72.50;42.10;;;2.30;99.90;;;;;;5008839;28;20608;-76
2023/11/18 01:01:27;;;;;;;72.13;40.67;;;2.30;99.90;;;;;;5001218;28;20038;-75
2023/11/18 01:03:53;;;;;;;64.18;42.28;;;2.30;99.90;;;;;;5007280;28;20102;-77
2023/11/18 01:06:19;;;;;;;87.03;44.17;;;2.30;99.90;;;;;;4991123;28;20132;-76
2023/11/18 01:08:49;;;;;;;102.53;50.70;;;2.20;99.90;;;;;;5015002;28;20112;-76
2023/11/18 01:11:24;;;;;;;71.07;42.10;;;2.10;99.90;;;;;;5019380;28;20135;-76
2023/11/18 01:13:50;;;;;;;48.05;37.55;;;2.10;99.90;;;;;;4998152;28;20364;-77
2023/11/18 01:16:16;;;;;;;50.60;39.08;;;2.10;99.90;;;;;;4999996;28;20044;-76
2023/11/18 01:18:43;;;;;;;56.08;41.65;;;2.10;99.90;;;;;;5009792;28;20053;-77
2023/11/18 01:21:12;;;;;;;56.58;40.97;;;2.10;99.90;;;;;;5004544;28;20132;-77
2023/11/18 01:23:42;;;;;;;113.80;53.97;;;2.10;99.90;;;;;;5012734;28;20037;-77
2023/11/18 01:26:09;;;;;;;65.85;41.60;;;2.10;99.90;;;;;;5013743;28;20053;-76
2023/11/18 01:28:37;;;;;;;106.35;48.55;;;2.20;99.90;;;;;;4995359;28;20064;-77
2023/11/18 01:31:09;;;;;;;118.55;53.20;;;2.20;99.90;;;;;;5010742;28;20172;-76
2023/11/18 01:33:42;;;;;;;142.63;58.00;;;2.10;99.90;;;;;;4994389;28;20140;-76
2023/11/18 01:36:09;;;;;;;141.77;53.75;;;2.20;99.90;;;;;;4998992;28;20530;-76
2023/11/18 01:38:37;;;;;;;83.93;48.35;;;2.20;99.90;;;;;;5000562;28;20094;-76
2023/11/18 01:41:05;;;;;;;90.03;48.85;;;2.20;99.90;;;;;;5011849;28;20082;-76
2023/11/18 01:43:31;;;;;;;147.13;51.25;;;2.20;99.90;;;;;;4998985;28;20034;-76
2023/11/18 01:46:03;;;;;;;84.18;46.60;;;2.20;99.90;;;;;;5013152;28;20124;-76
2023/11/18 01:48:30;;;;;;;125.70;54.38;;;2.20;99.90;;;;;;5010455;28;20038;-76
2023/11/18 01:50:58;;;;;;;175.48;57.03;;;2.30;99.90;;;;;;5015769;28;20091;-76
2023/11/18 01:53:24;;;;;;;175.38;59.80;;;2.20;99.90;;;;;;5014410;28;20120;-76
2023/11/18 01:55:50;;;;;;;134.02;51.05;;;2.20;99.90;;;;;;5013775;28;20049;-76
2023/11/18 01:58:19;;;;;;;100.05;50.40;;;2.20;99.90;;;;;;5022131;28;20045;-76
2023/11/18 02:00:46;;;;;;;87.35;48.92;;;2.20;99.90;;;;;;5012028;28;20132;-76
2023/11/18 02:03:12;;;;;;;127.88;50.17;;;2.20;99.90;;;;;;5017087;28;20041;-76
2023/11/18 02:05:38;;;;;;;259.70;65.97;;;2.20;99.90;;;;;;5012557;28;20041;-76
2023/11/18 02:08:07;;;;;;;319.58;73.63;;;2.20;99.90;;;;;;5013633;28;20103;-76
2023/11/18 02:10:36;;;;;;;138.90;50.33;;;2.20;99.90;;;;;;4995631;28;20128;-76
2023/11/18 02:13:28;;;;;;;101.13;47.80;;;2.20;99.90;;;;;;5014525;28;20098;-76
2023/11/18 02:16:00;;;;;;;150.40;54.55;;;2.20;99.90;;;;;;5008277;28;20056;-76
2023/11/18 02:18:28;;;;;;;147.85;52.88;;;2.20;99.90;;;;;;4995235;28;20771;-76
2023/11/18 02:20:59;;;;;;;165.45;56.33;;;2.20;99.90;;;;;;5003243;28;20446;-76
2023/11/18 02:23:28;;;;;;;107.47;49.80;;;2.20;99.90;;;;;;4991989;28;20064;-76
2023/11/18 02:25:58;;;;;;;151.77;56.08;;;2.20;99.90;;;;;;5011186;28;20042;-77
2023/11/18 02:28:24;;;;;;;145.48;54.28;;;2.20;99.90;;;;;;4991528;28;20095;-76
2023/11/18 02:30:54;;;;;;;283.55;68.55;;;2.20;99.90;;;;;;5002169;28;20526;-76
2023/11/18 02:33:43;;;;;;;111.00;52.63;;;2.20;99.90;;;;;;4993572;28;20048;-77
2023/11/18 02:36:15;;;;;;;99.45;49.67;;;2.20;99.90;;;;;;4987963;28;20056;-81
2023/11/18 02:38:49;;;;;;;170.75;59.15;;;2.20;99.90;;;;;;5008592;28;20041;-79
2023/11/18 02:41:18;;;;;;;134.05;58.50;;;2.20;99.90;;;;;;5005312;28;20108;-79
2023/11/18 02:43:45;;;;;;;210.50;64.97;;;2.30;99.90;;;;;;4994946;28;20041;-79
2023/11/18 02:46:14;;;;;;;200.57;66.15;;;2.20;99.90;;;;;;4993050;28;20052;-80
2023/11/18 02:48:43;;;;;;;100.72;52.25;;;2.30;99.90;;;;;;5000409;28;20053;-79
2023/11/18 02:51:11;;;;;;;151.82;60.25;;;2.30;99.90;;;;;;5005625;28;20710;-79
2023/11/18 02:53:37;;;;;;;243.13;68.35;;;2.30;99.90;;;;;;5013985;28;20041;-79
2023/11/18 02:56:04;;;;;;;192.90;66.45;;;2.30;99.90;;;;;;5000067;28;20123;-80
2023/11/18 02:58:30;;;;;;;184.05;65.10;;;2.30;99.90;;;;;;4993775;28;20124;-79
2023/11/18 03:00:57;;;;;;;314.33;79.45;;;2.30;99.90;;;;;;5007911;28;20121;-79
2023/11/18 03:03:28;;;;;;;177.88;62.30;;;2.40;99.90;;;;;;4987170;28;20041;-79
2023/11/18 03:05:54;;;;;;;312.88;78.60;;;2.40;99.90;;;;;;4982948;28;20041;-79
2023/11/18 03:08:20;;;;;;;150.75;62.05;;;2.40;99.90;;;;;;4992784;28;20416;-76
2023/11/18 03:10:46;;;;;;;270.27;75.47;;;2.50;99.90;;;;;;5007883;28;20053;-77
2023/11/18 03:13:12;;;;;;;305.48;81.20;;;2.50;99.90;;;;;;4987348;28;20115;-77
2023/11/18 03:15:38;;;;;;;210.15;69.38;;;2.50;99.90;;;;;;5004041;28;20504;-77
2023/11/18 03:18:05;;;;;;;316.75;82.57;;;2.50;99.90;;;;;;4991433;28;20042;-76
2023/11/18 03:20:31;;;;;;;167.00;63.15;;;2.50;99.90;;;;;;4989845;28;20041;-77
2023/11/18 03:23:03;;;;;;;134.00;58.15;;;2.50;99.90;;;;;;5000894;28;20045;-76
2023/11/18 03:25:28;;;;;;;281.35;73.18;;;2.50;99.90;;;;;;4986299;28;20061;-76
2023/11/18 03:27:54;;;;;;;258.67;73.28;;;2.60;99.90;;;;;;5007310;28;20451;-76
2023/11/18 03:30:21;;;;;;;363.35;84.50;;;2.60;99.90;;;;;;5007700;28;20073;-77
2023/11/18 03:32:50;;;;;;;186.93;64.95;;;2.60;99.90;;;;;;4992736;28;20053;-76
2023/11/18 03:35:15;;;;;;;166.95;64.75;;;2.60;99.90;;;;;;5001524;28;20104;-76
2023/11/18 03:37:41;;;;;;;228.40;67.53;;;2.70;99.90;;;;;;4990036;28;20045;-76
2023/11/18 03:40:09;;;;;;;286.95;78.22;;;2.70;99.90;;;;;;5008661;28;20073;-76
2023/11/18 03:42:35;;;;;;;336.83;83.05;;;2.70;99.90;;;;;;5005955;28;20405;-77
2023/11/18 03:45:01;;;;;;;313.45;80.97;;;2.70;99.90;;;;;;4990857;28;20038;-77
2023/11/18 03:47:27;;;;;;;174.38;66.88;;;2.80;99.90;;;;;;4989843;28;20057;-76
2023/11/18 03:49:55;;;;;;;346.30;81.32;;;2.80;99.90;;;;;;4992748;28;20042;-77
2023/11/18 03:52:24;;;;;;;378.00;87.18;;;3.00;99.90;;;;;;5001735;28;20452;-76
2023/11/18 03:54:50;;;;;;;179.15;65.45;;;2.90;99.90;;;;;;4997996;28;20095;-77
2023/11/18 03:57:16;;;;;;;290.75;80.40;;;2.90;99.90;;;;;;5002217;28;20435;-77
2023/11/18 03:59:42;;;;;;;308.23;75.57;;;2.90;99.90;;;;;;5006544;28;20040;-77
2023/11/18 04:02:09;;;;;;;342.15;83.18;;;3.00;99.90;;;;;;4990421;28;20399;-77
2023/11/18 04:04:34;;;;;;;307.98;79.07;;;3.00;99.90;;;;;;4996931;28;20053;-77
2023/11/18 04:07:01;;;;;;;399.38;93.95;;;3.00;99.90;;;;;;4991054;28;20388;-77
2023/11/18 04:09:27;;;;;;;264.20;78.30;;;3.00;99.90;;;;;;4997086;28;20042;-77
2023/11/18 04:11:53;;;;;;;260.25;79.15;;;3.10;99.90;;;;;;5008021;28;20504;-77
2023/11/18 04:14:19;;;;;;;335.95;81.97;;;3.10;99.90;;;;;;5000491;28;20051;-77
2023/11/18 04:16:46;;;;;;;369.55;90.65;;;3.10;99.90;;;;;;4994930;28;20033;-77
2023/11/18 04:19:12;;;;;;;467.30;100.43;;;3.20;99.90;;;;;;5001444;28;20315;-77
2023/11/18 04:21:38;;;;;;;380.83;86.70;;;3.20;99.90;;;;;;4999152;28;20459;-77
2023/11/18 04:24:05;;;;;;;458.95;101.65;;;3.20;99.90;;;;;;4974764;28;20381;-78
2023/11/18 04:26:31;;;;;;;309.20;85.50;;;3.30;99.90;;;;;;4995115;28;20151;-76
2023/11/18 04:28:58;;;;;;;391.30;95.22;;;3.30;99.90;;;;;;4989641;28;20129;-76
2023/11/18 04:31:24;;;;;;;465.60;102.15;;;3.30;99.90;;;;;;5004632;28;20172;-77
2023/11/18 04:33:50;;;;;;;530.03;108.95;;;3.40;99.90;;;;;;4986334;28;20165;-76
2023/11/18 04:36:16;;;;;;;282.45;83.15;;;3.40;99.90;;;;;;4987950;28;20571;-76
2023/11/18 04:38:43;;;;;;;531.78;112.32;;;3.50;99.90;;;;;;4987954;28;20059;-76
2023/11/18 04:41:09;;;;;;;479.50;102.05;;;3.50;99.90;;;;;;4987913;28;20513;-76
2023/11/18 04:43:35;;;;;;;265.63;82.53;;;3.50;99.90;;;;;;4986508;28;20045;-76
2023/11/18 04:46:01;;;;;;;324.10;89.28;;;3.60;99.90;;;;;;5007939;28;20111;-76
2023/11/18 04:48:26;;;;;;;501.85;103.97;;;3.60;99.90;;;;;;4989825;28;20052;-76
2023/11/18 04:50:52;;;;;;;398.52;97.93;;;3.60;99.90;;;;;;4980045;28;20041;-76
2023/11/18 04:53:18;;;;;;;403.77;97.45;;;3.60;99.90;;;;;;4994305;28;20463;-76
2023/11/18 04:55:44;;;;;;;395.73;91.15;;;3.70;99.90;;;;;;4987548;28;20029;-77
2023/11/18 04:58:10;;;;;;;324.45;87.22;;;3.70;99.90;;;;;;4995874;28;20434;-76
2023/11/18 05:00:39;;;;;;;453.00;96.78;;;3.70;99.90;;;;;;4987336;28;20103;-76
2023/11/18 05:03:09;;;;;;;577.15;109.80;;;3.70;99.90;;;;;;4998866;28;20116;-76
2023/11/18 05:05:39;;;;;;;389.17;91.20;;;3.70;99.90;;;;;;4996533;28;20048;-77
2023/11/18 05:08:18;;;;;;;437.33;99.50;;;3.80;99.90;;;;;;4993272;28;20077;-76
2023/11/18 05:10:47;;;;;;;404.35;94.43;;;3.80;99.90;;;;;;4999478;28;21169;-76
2023/11/18 05:13:15;;;;;;;427.40;95.57;;;3.80;99.90;;;;;;5000791;28;20523;-76
2023/11/18 05:15:41;;;;;;;370.30;91.05;;;3.80;99.90;;;;;;5001600;28;20448;-76
2023/11/18 05:18:11;;;;;;;393.55;91.45;;;3.90;99.90;;;;;;5001864;28;20052;-77
2023/11/18 05:20:37;;;;;;;460.00;98.25;;;3.90;99.90;;;;;;4980458;28;20042;-76
2023/11/18 05:23:03;;;;;;;470.40;107.15;;;3.90;99.90;;;;;;4995308;28;20041;-76
2023/11/18 05:25:29;;;;;;;506.95;106.80;;;3.90;99.90;;;;;;4987994;28;20037;-76
2023/11/18 05:27:55;;;;;;;423.98;98.15;;;4.00;99.90;;;;;;4995781;28;20110;-76
2023/11/18 05:30:21;;;;;;;361.80;95.03;;;4.00;99.90;;;;;;4993406;28;20123;-76
2023/11/18 05:32:47;;;;;;;523.10;110.55;;;4.00;99.90;;;;;;4995520;28;20491;-76
2023/11/18 05:35:13;;;;;;;405.52;98.30;;;4.10;99.90;;;;;;5001552;28;20126;-77
2023/11/18 05:37:40;;;;;;;334.67;93.65;;;4.10;99.90;;;;;;5015695;28;20098;-76
2023/11/18 05:40:07;;;;;;;409.10;97.47;;;4.10;99.90;;;;;;4986395;28;20125;-76
2023/11/18 05:42:36;;;;;;;785.63;139.25;;;4.10;99.90;;;;;;5006701;28;20033;-77
2023/11/18 05:45:04;;;;;;;499.27;107.75;;;4.10;99.90;;;;;;4993948;28;20522;-76
2023/11/18 05:47:30;;;;;;;515.20;107.82;;;4.10;99.90;;;;;;4988425;28;20053;-76
2023/11/18 05:49:56;;;;;;;477.20;104.95;;;4.10;99.90;;;;;;4990564;28;20033;-76
2023/11/18 05:52:25;;;;;;;448.60;104.22;;;4.20;99.90;;;;;;4989238;28;20477;-77
2023/11/18 05:54:50;;;;;;;543.65;117.40;;;4.20;99.90;;;;;;5004792;28;20057;-76
2023/11/18 05:57:16;;;;;;;476.60;108.45;;;4.20;99.90;;;;;;5009373;28;20114;-76
2023/11/18 05:59:43;;;;;;;543.50;119.55;;;4.20;99.90;;;;;;5009287;28;20711;-76
2023/11/18 06:02:13;;;;;;;536.25;119.40;;;4.20;99.90;;;;;;5013294;28;20052;-76
2023/11/18 06:04:39;;;;;;;412.08;100.55;;;4.30;99.90;;;;;;5009469;28;20049;-76
2023/11/18 06:07:05;;;;;;;413.48;100.43;;;4.30;99.90;;;;;;5013328;28;20049;-76
2023/11/18 06:09:32;;;;;;;466.15;108.63;;;4.30;99.90;;;;;;4997742;28;20053;-76
2023/11/18 06:11:57;;;;;;;515.03;114.60;;;4.30;99.90;;;;;;5004292;28;20045;-76
2023/11/18 06:14:24;;;;;;;497.35;114.57;;;4.30;99.90;;;;;;4998851;28;20080;-76
2023/11/18 06:16:50;;;;;;;344.23;97.32;;;4.30;99.90;;;;;;5007207;28;20155;-76
2023/11/18 06:19:16;;;;;;;476.35;112.82;;;4.20;99.90;;;;;;5017293;28;20045;-76
2023/11/18 06:21:42;;;;;;;421.02;108.70;;;4.30;99.90;;;;;;5003356;28;20045;-76
2023/11/18 06:24:11;;;;;;;346.27;96.57;;;4.40;99.90;;;;;;5004981;28;20786;-76
2023/11/18 06:26:36;;;;;;;385.30;100.25;;;4.40;99.90;;;;;;5012838;28;20716;-77
2023/11/18 06:29:06;;;;;;;381.10;99.85;;;4.40;99.90;;;;;;4998084;28;20041;-76
2023/11/18 06:31:32;;;;;;;446.00;106.82;;;4.30;99.90;;;;;;5008638;28;20054;-77
2023/11/18 06:33:58;;;;;;;489.42;107.07;;;4.30;99.90;;;;;;4996500;28;20040;-76
2023/11/18 06:36:26;;;;;;;373.42;93.28;;;4.40;99.90;;;;;;4989933;28;20630;-77
2023/11/18 06:38:53;;;;;;;352.27;91.00;;;4.40;99.90;;;;;;5012415;28;20117;-77
2023/11/18 06:41:25;;;;;;;359.38;89.82;;;4.40;99.90;;;;;;5011742;28;20064;-77
2023/11/18 06:43:54;;;;;;;447.48;102.47;;;4.30;99.90;;;;;;4995109;28;20502;-76
2023/11/18 06:46:31;;;;;;;273.27;86.10;;;4.40;99.90;;;;;;5011905;28;20048;-76
2023/11/18 06:48:58;;;;;;;222.95;76.97;;;4.30;99.90;;;;;;4989361;28;20041;-77
2023/11/18 06:51:27;;;;;;;495.48;109.35;;;4.40;99.90;;;;;;4993030;28;20053;-77
2023/11/18 06:53:56;;;;;;;297.95;87.47;;;4.30;99.90;;;;;;4986131;28;20582;-78
2023/11/18 06:56:24;;;;;;;346.02;93.38;;;4.40;99.90;;;;;;4992620;28;20096;-77
2023/11/18 06:58:50;;;;;;;372.90;94.78;;;4.40;99.90;;;;;;4991779;28;20508;-76
2023/11/18 07:01:16;;;;;;;289.88;84.80;;;4.40;99.90;;;;;;4992941;28;20041;-76
2023/11/18 07:03:48;;;;;;;361.58;91.55;;;4.40;99.90;;;;;;5006450;28;20098;-77
2023/11/18 07:06:23;;;;;;;384.63;94.85;;;4.50;99.90;;;;;;4991636;28;20095;-77
2023/11/18 07:08:49;;;;;;;343.40;92.72;;;4.40;99.90;;;;;;5003159;28;20143;-77
2023/11/18 07:11:16;;;;;;;282.42;83.63;;;4.50;99.90;;;;;;5001873;28;20065;-77
2023/11/18 07:13:42;;;;;;;319.75;86.72;;;4.50;99.90;;;;;;5007291;28;20323;-77
2023/11/18 07:16:09;;;;;;;307.35;86.35;;;4.50;99.90;;;;;;5005724;28;20067;-77
2023/11/18 07:18:38;;;;;;;330.77;91.05;;;4.50;99.90;;;;;;4988138;28;20057;-80
2023/11/18 07:21:05;;;;;;;305.35;86.15;;;4.50;99.90;;;;;;5007114;28;20090;-81
2023/11/18 07:23:31;;;;;;;303.63;83.68;;;4.50;99.90;;;;;;5015337;28;20049;-80
2023/11/18 07:26:00;;;;;;;437.92;100.65;;;4.60;99.90;;;;;;4991930;28;20045;-80
2023/11/18 07:28:26;;;;;;;390.73;93.63;;;4.60;99.90;;;;;;5030641;28;20049;-80
2023/11/18 07:30:53;;;;;;;373.55;91.45;;;4.60;99.90;;;;;;4992855;28;20125;-80
2023/11/18 07:33:20;;;;;;;292.30;82.15;;;4.60;99.90;;;;;;5013252;28;20496;-81
2023/11/18 07:35:49;;;;;;;396.08;96.20;;;4.70;99.90;;;;;;5006172;28;20045;-80
2023/11/18 07:38:16;;;;;;;312.23;85.20;;;4.70;99.90;;;;;;4991946;28;20064;-80
2023/11/18 07:40:45;;;;;;;339.67;91.82;;;4.70;99.90;;;;;;5011319;28;20385;-80
2023/11/18 07:43:21;;;;;;;370.88;94.15;;;4.70;99.90;;;;;;4993734;28;20404;-80
2023/11/18 07:45:50;;;;;;;333.05;90.22;;;4.80;99.90;;;;;;5005022;28;20049;-80
2023/11/18 07:48:17;;;;;;;379.85;95.43;;;4.80;99.90;;;;;;5005313;28;20054;-80
2023/11/18 07:50:47;;;;;;;372.83;96.22;;;4.80;99.90;;;;;;5011132;28;20048;-77
2023/11/18 07:53:13;;;;;;;327.77;90.97;;;4.80;99.90;;;;;;5004191;28;20053;-77
2023/11/18 07:55:39;;;;;;;346.10;92.63;;;4.80;99.90;;;;;;5009648;28;20045;-77
2023/11/18 07:58:12;;;;;;;371.75;97.00;;;4.90;99.90;;;;;;5003175;28;20103;-76
2023/11/18 08:00:42;;;;;;;343.25;95.78;;;4.90;99.90;;;;;;4992516;28;20467;-76
2023/11/18 08:03:11;;;;;;;368.50;95.90;;;4.80;99.90;;;;;;4989406;28;20041;-76
2023/11/18 08:05:45;;;;;;;379.23;99.97;;;5.00;99.90;;;;;;4998371;28;20111;-77
2023/11/18 08:08:11;;;;;;;363.73;99.95;;;5.00;99.90;;;;;;5002156;28;20144;-77
2023/11/18 08:10:39;;;;;;;339.50;94.32;;;4.90;99.90;;;;;;5003404;28;20041;-77
2023/11/18 08:13:09;;;;;;;499.63;114.18;;;5.00;99.90;;;;;;4991028;28;20112;-77
2023/11/18 08:15:39;;;;;;;451.73;108.20;;;5.00;99.90;;;;;;4995091;28;20069;-77
2023/11/18 08:18:06;;;;;;;309.90;95.90;;;5.00;99.90;;;;;;4986761;28;20045;-77
2023/11/18 08:20:32;;;;;;;346.50;97.53;;;5.00;99.90;;;;;;4991431;28;20111;-77
2023/11/18 08:22:59;;;;;;;398.42;105.97;;;5.00;99.90;;;;;;4987708;28;20073;-77
2023/11/18 08:25:25;;;;;;;283.23;93.00;;;5.10;99.90;;;;;;4979074;28;20405;-77
2023/11/18 08:27:51;;;;;;;329.38;100.78;;;5.10;99.90;;;;;;4996828;28;20061;-77
2023/11/18 08:30:18;;;;;;;288.27;90.38;;;5.00;99.90;;;;;;5003184;28;20050;-77
2023/11/18 08:32:45;;;;;;;301.58;96.63;;;5.10;99.90;;;;;;4986164;28;20096;-77
2023/11/18 08:35:15;;;;;;;287.50;88.78;;;5.00;99.90;;;;;;4986860;28;20049;-77
2023/11/18 08:37:47;;;;;;;317.67;97.95;;;5.20;99.90;;;;;;4998475;28;20045;-77
2023/11/18 08:40:20;;;;;;;350.77;97.82;;;5.10;99.90;;;;;;4987143;28;20569;-78
2023/11/18 08:42:51;;;;;;;275.40;91.07;;;5.10;99.90;;;;;;4990454;28;20049;-77
2023/11/18 08:45:19;;;;;;;315.40;98.03;;;5.00;99.90;;;;;;5001079;28;20095;-77
2023/11/18 08:47:48;;;;;;;333.50;99.53;;;5.10;99.90;;;;;;4982721;28;20125;-77
2023/11/18 08:50:17;;;;;;;344.08;98.95;;;5.10;99.90;;;;;;5003711;28;20116;-78
2023/11/18 08:52:46;;;;;;;372.63;103.93;;;5.10;99.90;;;;;;4971535;28;20497;-78
2023/11/18 08:55:20;;;;;;;341.48;99.22;;;5.10;99.90;;;;;;4989396;28;20077;-78
2023/11/18 08:58:34;;;;;;;344.90;99.93;;;5.10;99.90;;;;;;4989362;28;20058;-77
2023/11/18 09:03:24;;;;;;;326.05;98.32;;;5.00;99.90;;;;;;4998768;28;20053;-77
2023/11/18 09:05:56;;;;;;;325.88;95.38;;;5.00;99.90;;;;;;5002773;28;20115;-77
2023/11/18 09:08:34;;;;;;;342.05;97.85;;;5.00;99.90;;;;;;4995984;28;20045;-77
2023/11/18 09:11:01;;;;;;;370.95;101.93;;;5.00;99.90;;;;;;5009335;28;20122;-78
2023/11/18 09:13:31;;;;;;;323.45;99.25;;;5.00;99.90;;;;;;5003562;28;20053;-78
2023/11/18 09:16:04;;;;;;;334.10;100.20;;;5.00;99.90;;;;;;4986079;28;20049;-77
2023/11/18 09:18:33;;;;;;;292.38;96.75;;;4.90;99.90;;;;;;4999003;28;20053;-77
2023/11/18 09:21:00;;;;;;;299.02;98.93;;;4.90;99.90;;;;;;4984894;28;20350;-77
2023/11/18 09:23:27;;;;;;;261.70;95.90;;;4.90;99.90;;;;;;4995290;28;20497;-77
2023/11/18 09:25:54;;;;;;;277.90;93.75;;;4.90;99.90;;;;;;4987451;28;20038;-77
2023/11/18 09:28:24;;;;;;;;;;;4.90;99.90;;;;;;4991144;28;20053;-76
2023/11/18 09:30:53;;;;;;;240.30;94.07;;;4.90;99.90;;;;;;5006902;28;20010;-77
2023/11/18 09:33:32;;;;;;;241.35;94.68;;;4.90;99.90;;;;;;5009045;28;20037;-77
2023/11/18 09:36:00;;;;;;;244.27;92.75;;;4.90;99.90;;;;;;4985381;28;20046;-76
2023/11/18 09:38:30;;;;;;;290.10;98.57;;;4.90;99.90;;;;;;4991686;28;20056;-77
2023/11/18 09:40:57;;;;;;;226.68;93.07;;;4.90;99.90;;;;;;5011507;28;20049;-76
2023/11/18 09:43:26;;;;;;;208.30;88.30;;;5.00;99.90;;;;;;4993291;28;20054;-76
2023/11/18 09:45:55;;;;;;;244.32;94.03;;;5.00;99.90;;;;;;5001046;28;20058;-77
2023/11/18 09:48:27;;;;;;;223.40;94.97;;;5.00;99.90;;;;;;5005452;28;20060;-77
2023/11/18 09:51:03;;;;;;;192.73;90.03;;;5.00;99.90;;;;;;4987478;28;20060;-77
2023/11/18 09:53:32;;;;;;;226.13;94.53;;;5.10;99.90;;;;;;4998489;28;20119;-77
2023/11/18 09:56:18;;;;;;;219.75;91.68;;;5.00;99.90;;;;;;5009769;28;20056;-76
2023/11/18 09:58:59;;;;;;;232.88;93.50;;;5.00;99.90;;;;;;5004596;28;20087;-77
2023/11/18 10:01:28;;;;;;;207.07;92.80;;;5.00;99.90;;;;;;4991035;28;20049;-78
2023/11/18 10:03:58;;;;;;;230.73;95.07;;;5.00;99.90;;;;;;5009794;28;20090;-77
2023/11/18 10:06:27;;;;;;;221.55;92.32;;;5.00;99.90;;;;;;5008824;28;20050;-77
2023/11/18 10:08:55;;;;;;;217.13;93.53;;;4.90;99.90;;;;;;4990229;28;20381;-78
2023/11/18 10:11:22;;;;;;;219.05;93.15;;;4.90;99.90;;;;;;5004881;28;20411;-78
2023/11/18 10:13:48;;;;;;;187.45;88.50;;;5.00;99.90;;;;;;4998888;28;20125;-77
2023/11/18 10:16:15;;;;;;;208.48;92.93;;;4.90;99.90;;;;;;4989808;28;20449;-77
2023/11/18 10:18:49;;;;;;;186.35;90.93;;;5.00;99.90;;;;;;4990908;28;20055;-77
2023/11/18 10:21:34;;;;;;;183.77;86.30;;;5.00;99.90;;;;;;4999182;28;20509;-77
2023/11/18 10:24:01;;;;;;;157.85;80.97;;;4.90;99.90;;;;;;5000859;28;20099;-78
2023/11/18 10:26:27;;;;;;;173.50;85.03;;;5.00;99.90;;;;;;5007126;28;20117;-78
2023/11/18 10:28:53;;;;;;;148.65;78.63;;;5.00;99.90;;;;;;5010917;28;20504;-76
2023/11/18 10:31:20;;;;;;;135.02;74.63;;;5.00;99.90;;;;;;4997088;28;20436;-75
2023/11/18 10:33:46;;;;;;;154.52;79.88;;;5.00;99.90;;;;;;5009566;28;20099;-76
2023/11/18 10:36:23;;;;;;;129.18;71.30;;;5.00;99.90;;;;;;4994902;28;20053;-78
2023/11/18 10:38:51;;;;;;;134.15;72.55;;;5.00;99.90;;;;;;4999933;28;20621;-75
2023/11/18 10:41:18;;;;;;;130.07;73.25;;;5.00;99.90;;;;;;5007175;28;20052;-79
2023/11/18 10:43:45;;;;;;;125.65;70.72;;;5.00;99.90;;;;;;5011658;28;20578;-75
2023/11/18 10:46:15;;;;;;;108.68;64.88;;;5.00;99.90;;;;;;5006998;28;20045;-77
2023/11/18 10:48:42;;;;;;;;;;;5.00;99.90;;;;;;4989017;28;20041;-76
2023/11/18 10:51:14;;;;;;;108.32;63.28;;;5.00;99.90;;;;;;4987089;28;20281;-76
2023/11/18 10:53:53;;;;;;;108.25;63.92;;;5.00;99.90;;;;;;4999912;28;20045;-76
2023/11/18 10:56:28;;;;;;;96.30;57.85;;;5.00;99.90;;;;;;4989247;28;20056;-76
2023/11/18 10:59:06;;;;;;;93.75;59.60;;;5.00;99.90;;;;;;5003455;28;20374;-76
2023/11/18 11:01:43;;;;;;;84.05;56.22;;;4.90;99.90;;;;;;4994387;28;20104;-77
2023/11/18 11:04:16;;;;;;;89.35;55.58;;;4.90;99.90;;;;;;4983344;28;20554;-77
2023/11/18 11:06:52;;;;;;;94.35;56.72;;;5.00;99.90;;;;;;5001986;28;20049;-76
2023/11/18 11:09:26;;;;;;;87.47;55.20;;;5.00;99.90;;;;;;4999539;28;20056;-76
2023/11/18 11:12:03;;;;;;;81.63;53.15;;;5.00;99.90;;;;;;4997715;28;20046;-76
2023/11/18 11:14:36;;;;;;;75.25;50.25;;;5.00;99.90;;;;;;5005206;28;20192;-77
2023/11/18 11:17:15;;;;;;;81.95;53.22;;;5.00;99.90;;;;;;4997314;28;20072;-77
2023/11/18 11:20:11;;;;;;;80.03;51.72;;;5.00;99.90;;;;;;4993033;28;20080;-77
2023/11/18 11:22:54;;;;;;;71.57;49.78;;;5.00;99.90;;;;;;5011528;28;20064;-77
2023/11/18 11:25:34;;;;;;;81.57;52.90;;;5.00;99.90;;;;;;5008672;28;20452;-77
2023/11/18 11:28:22;;;;;;;74.70;49.95;;;5.00;99.90;;;;;;4988791;28;20053;-77
2023/11/18 11:31:00;;;;;;;77.95;50.08;;;5.10;99.90;;;;;;4990941;28;20100;-77
2023/11/18 11:33:29;;;;;;;75.43;50.83;;;5.10;99.90;;;;;;4981750;28;20501;-77
2023/11/18 11:35:59;;;;;;;71.60;49.17;;;5.00;99.90;;;;;;5004074;28;20164;-77
2023/11/18 11:38:26;;;;;;;72.35;50.63;;;5.00;99.90;;;;;;4999391;28;20053;-77
2023/11/18 11:40:55;;;;;;;69.63;47.55;;;5.10;99.90;;;;;;4988922;28;20049;-77
2023/11/18 11:43:27;;;;;;;78.70;51.03;;;5.10;99.90;;;;;;4980926;28;20034;-77
2023/11/18 11:45:55;;;;;;;67.00;47.55;;;5.10;99.90;;;;;;5005551;28;20135;-77
2023/11/18 11:48:27;;;;;;;70.80;48.63;;;5.10;99.90;;;;;;5005732;28;20370;-77
2023/11/18 11:51:04;;;;;;;71.72;49.63;;;5.10;99.90;;;;;;5002812;28;20049;-78
2023/11/18 11:53:36;;;;;;;70.53;48.83;;;5.10;99.90;;;;;;4979981;28;20080;-77
2023/11/18 11:56:06;;;;;;;72.18;48.72;;;5.20;99.90;;;;;;4990441;28;20053;-77
2023/11/18 11:58:39;;;;;;;74.18;47.35;;;5.20;99.90;;;;;;4989926;28;20455;-77
2023/11/18 12:01:24;;;;;;;67.90;47.17;;;5.10;99.90;;;;;;4996997;28;20132;-78
2023/11/18 12:03:57;;;;;;;65.88;46.65;;;5.20;99.90;;;;;;4996115;28;20049;-78
2023/11/18 12:06:24;;;;;;;68.55;46.95;;;5.20;99.90;;;;;;4988077;28;20484;-78
2023/11/18 12:08:54;;;;;;;70.55;47.25;;;5.20;99.90;;;;;;4978833;28;20121;-78
2023/11/18 12:11:24;;;;;;;66.90;47.72;;;5.20;99.90;;;;;;5007363;28;20420;-77
2023/11/18 12:14:12;;;;;;;64.55;45.55;;;5.20;99.90;;;;;;5001976;28;20121;-79
2023/11/18 12:17:11;;;;;;;70.68;47.65;;;5.20;99.90;;;;;;4994273;28;20111;-78
2023/11/18 12:19:56;;;;;;;72.32;48.10;;;5.20;99.90;;;;;;4985254;28;20059;-78
2023/11/18 12:22:30;;;;;;;68.75;46.13;;;5.20;99.90;;;;;;4985217;28;20062;-78
2023/11/18 12:24:59;;;;;;;70.22;48.40;;;5.20;99.90;;;;;;5001038;28;20046;-78
2023/11/18 12:27:41;;;;;;;84.20;58.10;;;5.30;99.90;;;;;;4984512;28;20396;-79
2023/11/18 12:30:16;;;;;;;73.05;48.63;;;5.30;99.90;;;;;;4985166;28;20073;-79
2023/11/18 12:33:18;;;;;;;74.47;46.42;;;5.30;99.90;;;;;;4991670;28;20049;-80
2023/11/18 12:35:50;;;;;;;68.72;45.53;;;5.40;99.90;;;;;;4985397;28;20396;-80
2023/11/18 12:38:45;;;;;;;73.55;46.63;;;5.40;99.90;;;;;;4996907;28;20142;-80
2023/11/18 12:41:37;;;;;;;59.90;41.42;;;5.40;99.90;;;;;;4988895;28;20065;-79